createdAt,value
2019-03-25T00:00:37.810Z,14.80
2019-03-25T00:01:37.769Z,15.00
2019-03-25T00:02:37.745Z,12.90
2019-03-25T00:03:37.699Z,14.20
2019-03-25T00:04:37.625Z,14.60
2019-03-25T00:05:37.582Z,14.30
2019-03-25T00:06:37.558Z,13.00
2019-03-25T00:07:37.530Z,15.30
2019-03-25T00:08:37.459Z,15.70
2019-03-25T00:09:37.430Z,13.90
2019-03-25T00:10:37.365Z,12.90
2019-03-25T00:11:37.316Z,15.50
2019-03-25T00:12:37.281Z,12.50
2019-03-25T00:13:37.262Z,16.70
2019-03-25T00:14:37.192Z,11.30
2019-03-25T00:15:37.161Z,12.70
2019-03-25T00:16:37.096Z,15.80
2019-03-25T00:17:37.063Z,15.60
2019-03-25T00:18:37.035Z,13.90
2019-03-25T00:19:36.965Z,14.60
2019-03-25T00:20:36.935Z,13.20
2019-03-25T00:21:36.886Z,14.40
2019-03-25T00:22:36.839Z,15.50
2019-03-25T00:23:36.804Z,13.50
2019-03-25T00:24:38.990Z,14.70
2019-03-25T00:25:36.720Z,12.70
2019-03-25T00:26:36.656Z,15.30
2019-03-25T00:27:36.635Z,13.20
2019-03-25T00:28:36.575Z,15.50
2019-03-25T00:29:36.526Z,14.20
2019-03-25T00:30:36.514Z,13.40
2019-03-25T00:31:36.453Z,15.00
2019-03-25T00:32:36.392Z,14.30
2019-03-25T00:33:36.354Z,13.30
2019-03-25T00:34:36.306Z,12.10
2019-03-25T00:35:36.279Z,14.70
2019-03-25T00:36:36.236Z,10.90
2019-03-25T00:37:36.172Z,16.20
2019-03-25T00:38:36.196Z,13.00
2019-03-25T00:39:36.089Z,11.50
2019-03-25T00:40:36.067Z,11.80
2019-03-25T00:41:35.991Z,14.70
2019-03-25T00:42:35.958Z,12.00
2019-03-25T00:43:35.915Z,12.40
2019-03-25T00:44:35.865Z,12.70
2019-03-25T00:45:35.819Z,13.50
2019-03-25T00:46:35.831Z,13.80
2019-03-25T00:47:35.739Z,12.70
2019-03-25T00:48:35.685Z,12.80
2019-03-25T00:49:35.634Z,16.50
2019-03-25T00:50:35.599Z,11.40
2019-03-25T00:51:35.549Z,12.70
2019-03-25T00:52:35.540Z,14.10
2019-03-25T00:53:35.468Z,13.80
2019-03-25T00:54:35.406Z,13.70
2019-03-25T00:55:35.398Z,13.00
2019-03-25T00:56:35.327Z,13.00
2019-03-25T00:57:35.316Z,15.00
2019-03-25T00:58:35.242Z,13.10
2019-03-25T00:59:35.193Z,12.20
2019-03-25T01:00:35.136Z,14.40
2019-03-25T01:01:35.125Z,10.70
2019-03-25T01:02:35.098Z,13.50
2019-03-25T01:03:35.039Z,12.90
2019-03-25T01:04:34.969Z,11.20
2019-03-25T01:05:34.936Z,14.40
2019-03-25T01:06:34.896Z,14.20
2019-03-25T01:07:34.870Z,13.20
2019-03-25T01:08:34.816Z,17.30
2019-03-25T01:09:34.762Z,14.00
2019-03-25T01:10:34.722Z,14.00
2019-03-25T01:11:34.683Z,13.70
2019-03-25T01:12:34.625Z,12.30
2019-03-25T01:13:34.615Z,13.60
2019-03-25T01:14:34.556Z,13.80
2019-03-25T01:15:34.482Z,12.00
2019-03-25T01:16:34.449Z,13.40
2019-03-25T01:17:34.477Z,12.10
2019-03-25T01:18:34.358Z,16.80
2019-03-25T01:19:34.357Z,15.00
2019-03-25T01:20:34.269Z,19.30
2019-03-25T01:21:34.234Z,14.10
2019-03-25T01:22:34.185Z,15.40
2019-03-25T01:23:34.141Z,14.30
2019-03-25T01:24:34.083Z,14.20
2019-03-25T01:25:34.078Z,14.20
2019-03-25T01:26:34.002Z,13.80
2019-03-25T01:27:33.966Z,14.10
2019-03-25T01:28:33.923Z,13.80
2019-03-25T01:29:33.865Z,14.70
2019-03-25T01:30:33.850Z,13.80
2019-03-25T01:31:33.799Z,15.80
2019-03-25T01:32:33.739Z,15.30
2019-03-25T01:33:33.717Z,15.90
2019-03-25T01:34:33.654Z,14.30
2019-03-25T01:35:33.650Z,13.50
2019-03-25T01:36:33.563Z,13.20
2019-03-25T01:37:33.516Z,13.60
2019-03-25T01:38:33.471Z,12.20
2019-03-25T01:39:33.431Z,15.20
2019-03-25T01:40:33.466Z,15.30
2019-03-25T01:41:33.412Z,13.60
2019-03-25T01:42:33.301Z,14.60
2019-03-25T01:43:33.263Z,13.50
2019-03-25T01:44:33.202Z,12.10
2019-03-25T01:45:33.167Z,15.10
2019-03-25T01:46:33.145Z,14.10
2019-03-25T01:47:33.108Z,15.10
2019-03-25T01:48:33.028Z,14.40
2019-03-25T01:49:33.013Z,14.60
2019-03-25T01:50:32.957Z,12.20
2019-03-25T01:51:32.894Z,13.50
2019-03-25T01:52:32.884Z,13.70
2019-03-25T01:53:32.852Z,13.50
2019-03-25T01:54:32.759Z,14.20
2019-03-25T01:55:32.710Z,13.30
2019-03-25T01:56:32.675Z,13.60
2019-03-25T01:57:32.660Z,15.50
2019-03-25T01:58:32.612Z,11.90
2019-03-25T01:59:32.534Z,13.20
2019-03-25T02:00:32.503Z,15.00
2019-03-25T02:01:32.479Z,14.40
2019-03-25T02:02:32.418Z,11.30
2019-03-25T02:03:32.404Z,12.50
2019-03-25T02:04:32.328Z,14.60
2019-03-25T02:05:32.321Z,13.50
2019-03-25T02:06:32.264Z,14.70
2019-03-25T02:07:32.196Z,13.50
2019-03-25T02:08:32.146Z,12.40
2019-03-25T02:09:32.136Z,13.60
2019-03-25T02:10:32.064Z,15.20
2019-03-25T02:11:32.055Z,13.80
2019-03-25T02:12:31.971Z,11.80
2019-03-25T02:13:31.936Z,14.40
2019-03-25T02:14:31.883Z,13.40
2019-03-25T02:15:31.871Z,12.80
2019-03-25T02:16:31.810Z,13.30
2019-03-25T02:17:31.771Z,13.50
2019-03-25T02:18:31.724Z,12.40
2019-03-25T02:19:31.666Z,14.20
2019-03-25T02:20:31.625Z,14.70
2019-03-25T02:21:31.589Z,13.00
2019-03-25T02:22:31.600Z,14.10
2019-03-25T02:23:31.495Z,12.20
2019-03-25T02:24:31.461Z,10.10
2019-03-25T02:25:31.389Z,13.60
2019-03-25T02:26:31.372Z,12.20
2019-03-25T02:27:31.334Z,13.00
2019-03-25T02:28:31.266Z,13.30
2019-03-25T02:29:31.233Z,11.70
2019-03-25T02:30:31.176Z,12.10
2019-03-25T02:31:31.124Z,11.90
2019-03-25T02:32:31.120Z,13.60
2019-03-25T02:33:31.071Z,15.00
2019-03-25T02:34:31.010Z,12.20
2019-03-25T02:35:30.966Z,14.20
2019-03-25T02:36:30.922Z,13.20
2019-03-25T02:37:30.942Z,13.90
2019-03-25T02:38:30.850Z,14.40
2019-03-25T02:39:30.801Z,11.30
2019-03-25T02:40:30.752Z,11.40
2019-03-25T02:41:30.707Z,11.70
2019-03-25T02:42:30.661Z,12.10
2019-03-25T02:43:30.653Z,13.10
2019-03-25T02:44:30.566Z,13.40
2019-03-25T02:45:30.533Z,13.20
2019-03-25T02:46:30.476Z,13.20
2019-03-25T02:47:30.434Z,11.30
2019-03-25T02:48:30.409Z,13.10
2019-03-25T02:49:30.373Z,12.90
2019-03-25T02:50:30.296Z,12.70
2019-03-25T02:51:30.256Z,16.70
2019-03-25T02:52:30.229Z,13.60
2019-03-25T02:53:30.173Z,14.30
2019-03-25T02:54:30.154Z,12.60
2019-03-25T02:55:41.638Z,14.70
2019-03-25T02:56:30.032Z,12.90
2019-03-25T02:57:30.031Z,11.40
2019-03-25T02:58:29.957Z,13.30
2019-03-25T02:59:29.910Z,12.80
2019-03-25T03:00:29.925Z,13.60
2019-03-25T03:01:29.834Z,14.00
2019-03-25T03:02:29.774Z,12.20
2019-03-25T03:03:29.733Z,11.50
2019-03-25T03:04:29.693Z,14.20
2019-03-25T03:05:29.670Z,12.50
2019-03-25T03:06:29.633Z,14.50
2019-03-25T03:07:29.581Z,14.40
2019-03-25T03:08:29.521Z,14.80
2019-03-25T03:09:29.468Z,12.60
2019-03-25T03:10:29.417Z,11.80
2019-03-25T03:11:29.423Z,13.20
2019-03-25T03:12:29.336Z,14.00
2019-03-25T03:13:29.314Z,15.50
2019-03-25T03:14:29.262Z,12.50
2019-03-25T03:15:29.215Z,16.50
2019-03-25T03:16:29.164Z,14.90
2019-03-25T03:17:29.150Z,11.40
2019-03-25T03:18:29.078Z,13.60
2019-03-25T03:19:29.041Z,14.10
2019-03-25T03:20:28.993Z,11.30
2019-03-25T03:21:28.983Z,11.90
2019-03-25T03:22:28.904Z,11.50
2019-03-25T03:23:28.857Z,12.00
2019-03-25T03:24:28.819Z,11.40
2019-03-25T03:25:28.786Z,10.90
2019-03-25T03:26:28.746Z,10.80
2019-03-25T03:27:30.095Z,13.80
2019-03-25T03:28:28.637Z,10.00
2019-03-25T03:29:28.610Z,13.90
2019-03-25T03:30:28.574Z,15.00
2019-03-25T03:31:28.527Z,12.90
2019-03-25T03:32:28.506Z,13.70
2019-03-25T03:33:28.461Z,15.20
2019-03-25T03:34:28.521Z,11.50
2019-03-25T03:35:28.397Z,12.70
2019-03-25T03:36:28.325Z,13.10
2019-03-25T03:37:28.320Z,14.20
2019-03-25T03:38:28.265Z,12.70
2019-03-25T03:39:28.184Z,13.00
2019-03-25T03:40:28.155Z,12.90
2019-03-25T03:41:28.114Z,13.70
2019-03-25T03:42:28.051Z,14.90
2019-03-25T03:43:28.018Z,13.20
2019-03-25T03:44:27.982Z,12.10
2019-03-25T03:45:27.899Z,13.80
2019-03-25T03:46:27.890Z,12.20
2019-03-25T03:47:27.823Z,13.60
2019-03-25T03:48:27.809Z,15.40
2019-03-25T03:49:27.732Z,14.20
2019-03-25T03:50:27.713Z,13.20
2019-03-25T03:51:27.649Z,11.90
2019-03-25T03:52:27.618Z,11.90
2019-03-25T03:53:27.563Z,13.40
2019-03-25T03:54:27.544Z,12.50
2019-03-25T03:55:27.470Z,13.50
2019-03-25T03:56:27.453Z,14.40
2019-03-25T03:57:27.407Z,12.30
2019-03-25T03:58:27.362Z,11.20
2019-03-25T03:59:27.328Z,14.20
2019-03-25T04:00:27.275Z,12.70
2019-03-25T04:01:27.195Z,14.30
2019-03-25T04:02:27.176Z,11.10
2019-03-25T04:03:27.122Z,11.70
2019-03-25T04:04:27.095Z,12.50
2019-03-25T04:05:27.061Z,12.80
2019-03-25T04:06:26.988Z,12.80
2019-03-25T04:07:27.000Z,11.40
2019-03-25T04:08:26.922Z,12.30
2019-03-25T04:09:26.904Z,9.30
2019-03-25T04:10:26.824Z,11.60
2019-03-25T04:11:26.777Z,12.60
2019-03-25T04:12:26.739Z,12.30
2019-03-25T04:13:26.741Z,10.80
2019-03-25T04:14:26.686Z,13.90
2019-03-25T04:15:26.624Z,13.40
2019-03-25T04:16:26.578Z,11.00
2019-03-25T04:17:26.512Z,13.90
2019-03-25T04:18:26.496Z,11.70
2019-03-25T04:19:26.437Z,12.40
2019-03-25T04:20:26.407Z,15.10
2019-03-25T04:21:26.365Z,14.60
2019-03-25T04:22:26.297Z,13.40
2019-03-25T04:23:26.263Z,15.20
2019-03-25T04:24:26.205Z,11.80
2019-03-25T04:25:26.213Z,11.50
2019-03-25T04:26:28.849Z,13.30
2019-03-25T04:27:26.082Z,14.50
2019-03-25T04:28:26.064Z,12.30
2019-03-25T04:29:25.991Z,13.60
2019-03-25T04:30:26.004Z,13.70
2019-03-25T04:31:25.904Z,12.70
2019-03-25T04:32:25.868Z,12.50
2019-03-25T04:33:25.811Z,15.60
2019-03-25T04:34:25.820Z,15.40
2019-03-25T04:35:25.726Z,15.90
2019-03-25T04:36:25.734Z,14.50
2019-03-25T04:37:25.662Z,14.90
2019-03-25T04:38:25.612Z,12.50
2019-03-25T04:39:25.576Z,13.30
2019-03-25T04:40:25.519Z,11.80
2019-03-25T04:41:25.477Z,15.90
2019-03-25T04:42:25.444Z,13.70
2019-03-25T04:43:25.440Z,12.20
2019-03-25T04:44:25.410Z,10.60
2019-03-25T04:45:25.306Z,13.60
2019-03-25T04:46:25.253Z,14.20
2019-03-25T04:47:25.209Z,12.30
2019-03-25T04:48:25.164Z,13.50
2019-03-25T04:49:25.171Z,10.80
2019-03-25T04:50:25.100Z,13.50
2019-03-25T04:51:25.024Z,12.70
2019-03-25T04:52:24.989Z,12.10
2019-03-25T04:53:24.940Z,11.00
2019-03-25T04:54:24.935Z,12.50
2019-03-25T04:55:24.857Z,13.40
2019-03-25T04:56:24.842Z,14.00
2019-03-25T04:57:24.815Z,11.80
2019-03-25T04:58:24.729Z,13.40
2019-03-25T04:59:24.683Z,11.70
2019-03-25T05:00:24.675Z,11.30
2019-03-25T05:01:24.602Z,12.70
2019-03-25T05:02:24.557Z,12.90
2019-03-25T05:03:24.545Z,12.30
2019-03-25T05:04:24.495Z,9.00
2019-03-25T05:05:24.491Z,13.80
2019-03-25T05:06:24.407Z,13.10
2019-03-25T05:07:24.363Z,11.50
2019-03-25T05:08:24.312Z,12.00
2019-03-25T05:09:33.122Z,12.20
2019-03-25T05:10:24.205Z,11.90
2019-03-25T05:11:30.538Z,11.10
2019-03-25T05:12:24.111Z,12.00
2019-03-25T05:13:24.061Z,10.20
2019-03-25T05:14:24.052Z,10.10
2019-03-25T05:15:23.982Z,12.60
2019-03-25T05:16:23.959Z,10.70
2019-03-25T05:17:23.876Z,13.80
2019-03-25T05:18:23.852Z,13.00
2019-03-25T05:19:23.831Z,10.50
2019-03-25T05:20:23.780Z,11.80
2019-03-25T05:21:23.808Z,12.20
2019-03-25T05:22:23.701Z,10.50
2019-03-25T05:23:23.654Z,12.90
2019-03-25T05:24:23.616Z,11.10
2019-03-25T05:25:23.610Z,10.10
2019-03-25T05:26:23.493Z,11.90
2019-03-25T05:27:23.457Z,12.50
2019-03-25T05:28:23.431Z,11.30
2019-03-25T05:29:23.358Z,11.90
2019-03-25T05:30:23.346Z,10.40
2019-03-25T05:31:23.321Z,10.10
2019-03-25T05:32:23.331Z,10.20
2019-03-25T05:33:23.249Z,12.60
2019-03-25T05:34:23.167Z,11.10
2019-03-25T05:35:23.123Z,8.80
2019-03-25T05:36:23.074Z,10.70
2019-03-25T05:37:23.048Z,10.20
2019-03-25T05:38:23.001Z,10.90
2019-03-25T05:39:22.960Z,11.30
2019-03-25T05:40:22.900Z,9.90
2019-03-25T05:41:22.837Z,10.40
2019-03-25T05:42:22.794Z,12.70
2019-03-25T05:43:22.769Z,9.00
2019-03-25T05:44:22.748Z,9.70
2019-03-25T05:45:22.679Z,11.10
2019-03-25T05:46:22.646Z,10.50
2019-03-25T05:47:22.601Z,8.90
2019-03-25T05:48:22.662Z,11.20
2019-03-25T05:49:22.518Z,9.50
2019-03-25T05:50:22.478Z,11.50
2019-03-25T05:51:22.437Z,9.80
2019-03-25T05:52:22.386Z,8.40
2019-03-25T05:53:22.349Z,11.40
2019-03-25T05:54:22.279Z,12.00
2019-03-25T05:55:22.235Z,9.10
2019-03-25T05:56:22.182Z,11.20
2019-03-25T05:57:22.194Z,9.80
2019-03-25T05:58:22.109Z,11.00
2019-03-25T05:59:22.076Z,12.20
2019-03-25T06:00:21.995Z,9.00
2019-03-25T06:01:21.996Z,10.60
2019-03-25T06:02:21.962Z,9.50
2019-03-25T06:03:21.908Z,9.90
2019-03-25T06:04:21.868Z,11.90
2019-03-25T06:05:21.813Z,8.80
2019-03-25T06:06:21.742Z,11.10
2019-03-25T06:07:21.716Z,8.10
2019-03-25T06:08:21.657Z,11.50
2019-03-25T06:09:21.626Z,9.70
2019-03-25T06:10:21.607Z,11.00
2019-03-25T06:11:21.547Z,11.20
2019-03-25T06:12:21.528Z,10.50
2019-03-25T06:13:21.498Z,9.00
2019-03-25T06:14:21.426Z,9.00
2019-03-25T06:15:21.352Z,12.40
2019-03-25T06:16:21.312Z,12.60
2019-03-25T06:17:21.265Z,13.40
2019-03-25T06:18:21.276Z,12.60
2019-03-25T06:19:21.179Z,13.20
2019-03-25T06:20:21.147Z,12.50
2019-03-25T06:21:21.096Z,10.40
2019-03-25T06:22:21.095Z,12.60
2019-03-25T06:23:21.018Z,11.30
2019-03-25T06:24:20.984Z,11.90
2019-03-25T06:25:20.923Z,9.20
2019-03-25T06:26:20.876Z,8.40
2019-03-25T06:27:20.829Z,10.20
2019-03-25T06:28:20.851Z,13.90
2019-03-25T06:29:20.765Z,9.40
2019-03-25T06:30:20.710Z,11.70
2019-03-25T06:31:20.679Z,11.60
2019-03-25T06:32:20.615Z,13.80
2019-03-25T06:33:20.587Z,12.50
2019-03-25T06:34:20.576Z,12.20
2019-03-25T06:35:20.496Z,12.50
2019-03-25T06:36:20.471Z,14.20
2019-03-25T06:37:20.405Z,14.50
2019-03-25T06:38:20.377Z,10.60
2019-03-25T06:39:20.343Z,12.70
2019-03-25T06:40:20.311Z,14.30
2019-03-25T06:41:20.264Z,13.50
2019-03-25T06:42:20.215Z,13.10
2019-03-25T06:43:20.231Z,13.80
2019-03-25T06:44:20.128Z,14.70
2019-03-25T06:45:20.087Z,15.10
2019-03-25T06:46:22.179Z,14.70
2019-03-25T06:47:19.992Z,15.40
2019-03-25T06:48:19.970Z,16.70
2019-03-25T06:49:20.128Z,16.60
2019-03-25T06:50:19.888Z,15.00
2019-03-25T06:51:19.837Z,14.70
2019-03-25T06:52:19.798Z,14.10
2019-03-25T06:53:19.756Z,14.50
2019-03-25T06:54:19.680Z,15.30
2019-03-25T06:55:19.693Z,19.10
2019-03-25T06:56:19.629Z,16.10
2019-03-25T06:57:25.465Z,16.30
2019-03-25T06:58:19.549Z,14.70
2019-03-25T06:59:19.482Z,15.80
2019-03-25T07:00:19.459Z,14.40
2019-03-25T07:01:19.410Z,13.80
2019-03-25T07:02:19.343Z,14.70
2019-03-25T07:03:19.281Z,15.70
2019-03-25T07:04:19.245Z,14.20
2019-03-25T07:05:19.227Z,14.30
2019-03-25T07:06:19.235Z,14.50
2019-03-25T07:07:19.123Z,16.60
2019-03-25T07:08:19.128Z,17.80
2019-03-25T07:09:19.075Z,17.50
2019-03-25T07:10:19.003Z,14.50
2019-03-25T07:11:18.977Z,16.20
2019-03-25T07:12:18.927Z,15.20
2019-03-25T07:13:18.891Z,15.50
2019-03-25T07:14:18.845Z,16.90
2019-03-25T07:15:18.793Z,23.40
2019-03-25T07:16:18.745Z,16.00
2019-03-25T07:17:18.729Z,16.80
2019-03-25T07:18:18.680Z,17.70
2019-03-25T07:19:18.633Z,19.80
2019-03-25T07:20:18.621Z,14.90
2019-03-25T07:21:20.512Z,16.70
2019-03-25T07:22:18.562Z,17.40
2019-03-25T07:23:18.461Z,19.20
2019-03-25T07:24:18.445Z,14.50
2019-03-25T07:25:18.375Z,18.20
2019-03-25T07:26:18.364Z,18.00
2019-03-25T07:27:18.315Z,18.00
2019-03-25T07:28:18.293Z,15.60
2019-03-25T07:29:18.238Z,19.30
2019-03-25T07:30:18.233Z,16.70
2019-03-25T07:31:18.155Z,20.10
2019-03-25T07:32:18.133Z,16.10
2019-03-25T07:33:18.106Z,17.10
2019-03-25T07:34:18.022Z,15.80
2019-03-25T07:35:18.017Z,16.70
2019-03-25T07:36:17.984Z,17.40
2019-03-25T07:37:17.886Z,22.40
2019-03-25T07:38:17.895Z,20.60
2019-03-25T07:39:17.808Z,19.30
2019-03-25T07:40:17.826Z,21.40
2019-03-25T07:41:17.764Z,15.80
2019-03-25T07:42:17.688Z,17.70
2019-03-25T07:43:17.664Z,21.00
2019-03-25T07:44:17.602Z,18.50
2019-03-25T07:45:17.561Z,17.30
2019-03-25T07:46:17.676Z,17.70
2019-03-25T07:47:17.486Z,17.80
2019-03-25T07:48:17.480Z,16.30
2019-03-25T07:49:17.404Z,21.00
2019-03-25T07:50:17.374Z,18.60
2019-03-25T07:51:17.324Z,17.50
2019-03-25T07:52:17.273Z,16.80
2019-03-25T07:53:17.234Z,17.00
2019-03-25T07:54:17.175Z,13.40
2019-03-25T07:55:17.176Z,16.70
2019-03-25T07:56:17.108Z,16.70
2019-03-25T07:57:17.080Z,16.60
2019-03-25T07:58:17.032Z,18.10
2019-03-25T07:59:19.054Z,15.70
2019-03-25T08:00:16.926Z,17.10
2019-03-25T08:01:16.932Z,12.30
2019-03-25T08:02:16.846Z,16.00
2019-03-25T08:03:16.911Z,17.30
2019-03-25T08:04:16.774Z,15.90
2019-03-25T08:05:16.731Z,14.60
2019-03-25T08:06:16.997Z,13.90
2019-03-25T08:07:16.671Z,15.70
2019-03-25T08:08:16.600Z,16.50
2019-03-25T08:09:16.589Z,14.60
2019-03-25T08:10:16.577Z,16.40
2019-03-25T08:11:16.524Z,15.90
2019-03-25T08:12:16.439Z,13.80
2019-03-25T08:13:16.490Z,11.80
2019-03-25T08:14:16.350Z,12.50
2019-03-25T08:15:16.336Z,13.80
2019-03-25T08:16:16.280Z,13.50
2019-03-25T08:17:16.261Z,15.00
2019-03-25T08:18:16.201Z,13.20
2019-03-25T08:19:16.163Z,14.30
2019-03-25T08:20:16.117Z,14.00
2019-03-25T08:21:16.077Z,15.30
2019-03-25T08:22:16.046Z,15.90
2019-03-25T08:23:16.047Z,14.30
2019-03-25T08:24:15.973Z,17.70
2019-03-25T08:25:15.929Z,16.40
2019-03-25T08:26:15.891Z,15.90
2019-03-25T08:27:15.848Z,17.30
2019-03-25T08:28:15.807Z,16.20
2019-03-25T08:29:15.788Z,15.40
2019-03-25T08:30:15.746Z,16.20
2019-03-25T08:31:15.766Z,15.50
2019-03-25T08:32:15.651Z,17.80
2019-03-25T08:33:15.642Z,20.20
2019-03-25T08:34:15.569Z,16.10
2019-03-25T08:35:15.532Z,18.90
2019-03-25T08:36:15.501Z,17.50
2019-03-25T08:37:15.457Z,15.70
2019-03-25T08:38:15.407Z,16.30
2019-03-25T08:39:15.387Z,19.00
2019-03-25T08:40:15.327Z,18.70
2019-03-25T08:41:15.367Z,17.40
2019-03-25T08:42:15.337Z,15.80
2019-03-25T08:43:15.209Z,20.80
2019-03-25T08:44:15.193Z,18.60
2019-03-25T08:45:15.125Z,15.80
2019-03-25T08:46:15.105Z,15.60
2019-03-25T08:47:15.037Z,14.70
2019-03-25T08:48:15.000Z,17.20
2019-03-25T08:49:14.990Z,16.80
2019-03-25T08:50:14.991Z,13.80
2019-03-25T08:51:14.912Z,16.70
2019-03-25T08:52:14.832Z,15.60
2019-03-25T08:53:14.789Z,14.90
2019-03-25T08:54:14.846Z,14.70
2019-03-25T08:55:14.713Z,15.20
2019-03-25T08:56:14.756Z,15.70
2019-03-25T08:57:14.649Z,13.50
2019-03-25T08:58:14.580Z,16.20
2019-03-25T08:59:14.857Z,15.70
2019-03-25T09:00:14.499Z,14.90
2019-03-25T09:01:14.463Z,15.50
2019-03-25T09:02:14.448Z,17.20
2019-03-25T09:03:14.373Z,14.20
2019-03-25T09:04:14.376Z,17.40
2019-03-25T09:05:14.292Z,13.90
2019-03-25T09:06:14.245Z,13.50
2019-03-25T09:07:14.201Z,13.10
2019-03-25T09:08:14.164Z,15.10
2019-03-25T09:09:14.143Z,13.40
2019-03-25T09:10:14.099Z,10.30
2019-03-25T09:11:14.031Z,12.80
2019-03-25T09:12:14.004Z,11.40
2019-03-25T09:13:13.947Z,9.10
2019-03-25T09:14:13.912Z,12.70
2019-03-25T09:15:13.903Z,13.70
2019-03-25T09:16:13.853Z,12.70
2019-03-25T09:17:13.786Z,13.30
2019-03-25T09:18:13.737Z,10.40
2019-03-25T09:19:13.711Z,11.60
2019-03-25T09:20:13.663Z,9.60
2019-03-25T09:21:13.630Z,9.00
2019-03-25T09:22:13.587Z,9.10
2019-03-25T09:23:13.552Z,9.40
2019-03-25T09:24:13.491Z,13.40
2019-03-25T09:25:13.446Z,10.50
2019-03-25T09:26:14.189Z,10.70
2019-03-25T09:27:13.375Z,10.00
2019-03-25T09:28:23.686Z,9.60
2019-03-25T09:29:13.285Z,9.50
2019-03-25T09:30:13.242Z,8.20
2019-03-25T09:31:13.236Z,10.60
2019-03-25T09:32:13.164Z,6.70
2019-03-25T09:33:13.113Z,11.30
2019-03-25T09:34:13.086Z,8.70
2019-03-25T09:35:13.042Z,8.90
2019-03-25T09:36:13.006Z,9.00
2019-03-25T09:37:13.076Z,8.40
2019-03-25T09:38:12.943Z,11.30
2019-03-25T09:39:12.875Z,9.60
2019-03-25T09:40:12.846Z,9.50
2019-03-25T09:41:12.806Z,11.00
2019-03-25T09:42:12.778Z,8.70
2019-03-25T09:43:12.718Z,7.80
2019-03-25T09:44:12.671Z,10.40
2019-03-25T09:45:12.639Z,7.80
2019-03-25T09:46:12.622Z,9.10
2019-03-25T09:47:12.563Z,9.10
2019-03-25T09:48:12.533Z,9.50
2019-03-25T09:49:12.494Z,8.10
2019-03-25T09:50:12.446Z,8.60
2019-03-25T09:51:12.426Z,8.10
2019-03-25T09:52:12.362Z,8.80
2019-03-25T09:53:12.323Z,10.20
2019-03-25T09:54:12.291Z,11.10
2019-03-25T09:55:12.252Z,11.30
2019-03-25T09:56:12.234Z,10.10
2019-03-25T09:57:12.193Z,11.20
2019-03-25T09:58:12.135Z,11.90
2019-03-25T09:59:12.094Z,11.60
2019-03-25T10:00:12.057Z,10.00
2019-03-25T10:01:12.073Z,10.10
2019-03-25T10:02:11.972Z,9.40
2019-03-25T10:03:11.928Z,9.50
2019-03-25T10:04:11.909Z,9.10
2019-03-25T10:05:11.848Z,8.90
2019-03-25T10:06:11.825Z,8.20
2019-03-25T10:07:11.814Z,8.50
2019-03-25T10:08:11.892Z,10.70
2019-03-25T10:09:11.696Z,8.10
2019-03-25T10:10:11.677Z,9.30
2019-03-25T10:11:11.614Z,6.90
2019-03-25T10:12:11.604Z,9.70
2019-03-25T10:13:11.555Z,9.90
2019-03-25T10:14:11.517Z,8.90
2019-03-25T10:15:11.457Z,8.50
2019-03-25T10:16:11.413Z,8.80
2019-03-25T10:17:11.381Z,10.10
2019-03-25T10:18:11.343Z,8.70
2019-03-25T10:19:11.308Z,7.20
2019-03-25T10:20:11.301Z,9.80
2019-03-25T10:21:11.230Z,8.00
2019-03-25T10:22:11.187Z,9.00
2019-03-25T10:23:11.143Z,10.50
2019-03-25T10:24:11.121Z,11.40
2019-03-25T10:25:11.093Z,8.20
2019-03-25T10:26:11.049Z,7.70
2019-03-25T10:27:11.005Z,4.90
2019-03-25T10:28:10.951Z,4.60
2019-03-25T10:29:10.930Z,4.70
2019-03-25T10:30:10.877Z,5.00
2019-03-25T10:31:10.869Z,4.10
2019-03-25T10:32:10.807Z,6.90
2019-03-25T10:33:10.795Z,5.80
2019-03-25T10:34:10.713Z,6.50
2019-03-25T10:35:10.704Z,5.90
2019-03-25T10:36:10.652Z,5.80
2019-03-25T10:37:10.594Z,5.80
2019-03-25T10:38:19.099Z,5.10
2019-03-25T10:39:10.548Z,5.30
2019-03-25T10:40:10.484Z,5.60
2019-03-25T10:41:10.443Z,4.80
2019-03-25T10:42:10.483Z,4.60
2019-03-25T10:43:10.360Z,4.60
2019-03-25T10:44:10.352Z,5.30
2019-03-25T10:45:10.322Z,6.20
2019-03-25T10:46:10.251Z,6.80
2019-03-25T10:47:10.207Z,6.20
2019-03-25T10:48:10.179Z,6.90
2019-03-25T10:49:10.143Z,6.00
2019-03-25T10:50:10.133Z,6.10
2019-03-25T10:51:10.072Z,6.70
2019-03-25T10:52:10.032Z,5.90
2019-03-25T10:53:10.053Z,6.50
2019-03-25T10:54:09.951Z,6.40
2019-03-25T10:55:09.927Z,8.50
2019-03-25T10:56:09.910Z,7.40
2019-03-25T10:57:09.844Z,8.00
2019-03-25T10:58:09.812Z,7.10
2019-03-25T10:59:09.783Z,6.20
2019-03-25T11:00:09.738Z,7.50
2019-03-25T11:01:09.726Z,6.80
2019-03-25T11:02:09.700Z,8.30
2019-03-25T11:03:09.643Z,8.70
2019-03-25T11:04:09.604Z,8.30
2019-03-25T11:05:09.597Z,7.10
2019-03-25T11:06:09.610Z,6.60
2019-03-25T11:07:09.591Z,6.50
2019-03-25T11:08:09.461Z,6.80
2019-03-25T11:09:09.416Z,7.30
2019-03-25T11:10:09.398Z,9.70
2019-03-25T11:11:09.372Z,9.40
2019-03-25T11:12:09.323Z,7.90
2019-03-25T11:13:09.312Z,7.80
2019-03-25T11:14:09.259Z,7.80
2019-03-25T11:15:09.215Z,9.40
2019-03-25T11:16:10.397Z,9.20
2019-03-25T11:17:09.151Z,9.90
2019-03-25T11:18:09.110Z,9.10
2019-03-25T11:19:09.068Z,9.40
2019-03-25T11:20:09.043Z,9.40
2019-03-25T11:21:09.000Z,8.90
2019-03-25T11:22:08.994Z,8.40
2019-03-25T11:23:08.933Z,8.70
2019-03-25T11:24:08.902Z,10.10
2019-03-25T11:25:08.862Z,8.80
2019-03-25T11:26:08.816Z,10.90
2019-03-25T11:27:08.803Z,9.10
2019-03-25T11:28:08.743Z,11.60
2019-03-25T11:29:08.973Z,7.90
2019-03-25T11:30:08.672Z,9.50
2019-03-25T11:31:08.640Z,10.00
2019-03-25T11:32:08.629Z,11.70
2019-03-25T11:33:08.558Z,9.60
2019-03-25T11:34:08.518Z,9.00
2019-03-25T11:35:08.506Z,9.30
2019-03-25T11:36:08.446Z,11.00
2019-03-25T11:37:08.415Z,11.10
2019-03-25T11:38:08.399Z,10.50
2019-03-25T11:39:08.476Z,9.30
2019-03-25T11:40:08.455Z,8.10
2019-03-25T11:41:08.239Z,8.90
2019-03-25T11:42:10.228Z,7.20
2019-03-25T11:43:08.324Z,6.90
2019-03-25T11:44:08.154Z,7.20
2019-03-25T11:45:08.083Z,8.50
2019-03-25T11:46:08.043Z,8.20
2019-03-25T11:47:07.998Z,9.30
2019-03-25T11:48:07.965Z,7.40
2019-03-25T11:49:07.937Z,7.80
2019-03-25T11:50:07.904Z,6.90
2019-03-25T11:51:07.846Z,7.30
2019-03-25T11:52:07.807Z,8.10
2019-03-25T11:53:07.811Z,8.10
2019-03-25T11:54:07.739Z,7.30
2019-03-25T11:55:07.725Z,6.50
2019-03-25T11:56:07.696Z,7.70
2019-03-25T11:57:07.635Z,7.30
2019-03-25T11:58:07.579Z,8.60
2019-03-25T11:59:07.565Z,7.20
2019-03-25T12:00:07.505Z,5.80
2019-03-25T12:01:07.471Z,7.50
2019-03-25T12:02:17.095Z,8.80
2019-03-25T12:03:07.401Z,8.10
2019-03-25T12:04:07.383Z,8.80
2019-03-25T12:05:07.329Z,10.10
2019-03-25T12:06:07.319Z,8.20
2019-03-25T12:07:07.276Z,10.30
2019-03-25T12:08:07.220Z,9.60
2019-03-25T12:09:07.184Z,11.70
2019-03-25T12:10:07.146Z,12.20
2019-03-25T12:11:07.119Z,11.40
2019-03-25T12:12:07.103Z,10.90
2019-03-25T12:13:07.051Z,11.70
2019-03-25T12:14:07.003Z,14.10
2019-03-25T12:15:06.965Z,11.20
2019-03-25T12:16:06.931Z,12.10
2019-03-25T12:17:07.032Z,10.90
2019-03-25T12:18:06.850Z,13.40
2019-03-25T12:19:06.810Z,10.00
2019-03-25T12:20:06.785Z,10.40
2019-03-25T12:21:06.742Z,11.40
2019-03-25T12:22:06.748Z,8.50
2019-03-25T12:23:06.658Z,9.00
2019-03-25T12:24:06.672Z,7.60
2019-03-25T12:25:06.611Z,10.20
2019-03-25T12:26:06.585Z,9.40
2019-03-25T12:27:06.510Z,8.30
2019-03-25T12:28:06.492Z,9.90
2019-03-25T12:29:06.434Z,9.50
2019-03-25T12:30:06.406Z,10.80
2019-03-25T12:31:06.437Z,8.10
2019-03-25T12:32:06.304Z,10.60
2019-03-25T12:33:06.324Z,12.60
2019-03-25T12:34:06.248Z,11.70
2019-03-25T12:35:06.291Z,10.50
2019-03-25T12:36:06.153Z,13.00
2019-03-25T12:37:06.102Z,9.80
2019-03-25T12:38:06.079Z,12.20
2019-03-25T12:39:06.066Z,9.10
2019-03-25T12:40:07.879Z,10.70
2019-03-25T12:41:05.947Z,11.70
2019-03-25T12:42:05.898Z,10.30
2019-03-25T12:43:05.863Z,10.70
2019-03-25T12:44:05.824Z,11.40
2019-03-25T12:45:05.803Z,12.70
2019-03-25T12:46:05.740Z,10.50
2019-03-25T12:47:05.710Z,11.10
2019-03-25T12:48:05.661Z,7.90
2019-03-25T12:49:05.621Z,5.70
2019-03-25T12:50:05.596Z,4.20
2019-03-25T12:51:05.534Z,4.90
2019-03-25T12:52:05.495Z,3.80
2019-03-25T12:53:05.451Z,3.80
2019-03-25T12:54:05.405Z,3.40
2019-03-25T12:55:05.367Z,3.00
2019-03-25T12:56:05.349Z,4.80
2019-03-25T12:57:05.289Z,2.40
2019-03-25T12:58:07.429Z,2.30